sensor_id;sensor_type;location;lat;lon;timestamp;P1;durP1;ratioP1;P2;durP2;ratioP2
25091;SDS011;13082;52.374;4.946;2023-11-21T00:02:02;12.00;;;7.10;;
25091;SDS011;13082;52.374;4.946;2023-11-21T00:04:29;18.57;;;7.00;;
25091;SDS011;13082;52.374;4.946;2023-11-21T00:06:55;19.63;;;8.40;;
25091;SDS011;13082;52.374;4.946;2023-11-21T00:09:20;17.60;;;6.77;;
25091;SDS011;13082;52.374;4.946;2023-11-21T00:11:46;15.63;;;6.00;;
25091;SDS011;13082;52.374;4.946;2023-11-21T00:14:12;14.23;;;7.00;;
25091;SDS011;13082;52.374;4.946;2023-11-21T00:16:40;14.80;;;6.47;;
25091;SDS011;13082;52.374;4.946;2023-11-21T00:19:06;11.90;;;6.87;;
25091;SDS011;13082;52.374;4.946;2023-11-21T00:21:31;13.10;;;6.70;;
25091;SDS011;13082;52.374;4.946;2023-11-21T00:23:57;14.70;;;6.30;;
25091;SDS011;13082;52.374;4.946;2023-11-21T00:26:22;10.97;;;6.07;;
25091;SDS011;13082;52.374;4.946;2023-11-21T00:28:49;14.90;;;6.60;;
25091;SDS011;13082;52.374;4.946;2023-11-21T00:31:15;11.93;;;5.63;;
25091;SDS011;13082;52.374;4.946;2023-11-21T00:33:41;12.93;;;5.30;;
25091;SDS011;13082;52.374;4.946;2023-11-21T00:36:07;12.23;;;6.60;;
25091;SDS011;13082;52.374;4.946;2023-11-21T00:38:35;11.43;;;6.17;;
25091;SDS011;13082;52.374;4.946;2023-11-21T00:41:00;11.97;;;5.67;;
25091;SDS011;13082;52.374;4.946;2023-11-21T00:43:26;15.17;;;6.37;;
25091;SDS011;13082;52.374;4.946;2023-11-21T00:45:52;13.63;;;6.13;;
25091;SDS011;13082;52.374;4.946;2023-11-21T00:48:17;12.40;;;4.93;;
25091;SDS011;13082;52.374;4.946;2023-11-21T00:50:43;11.43;;;5.80;;
25091;SDS011;13082;52.374;4.946;2023-11-21T00:53:09;9.20;;;5.33;;
25091;SDS011;13082;52.374;4.946;2023-11-21T00:55:36;12.77;;;5.87;;
25091;SDS011;13082;52.374;4.946;2023-11-21T00:58:02;8.30;;;5.03;;
25091;SDS011;13082;52.374;4.946;2023-11-21T01:00:29;11.63;;;5.97;;
25091;SDS011;13082;52.374;4.946;2023-11-21T01:02:55;13.17;;;5.23;;
25091;SDS011;13082;52.374;4.946;2023-11-21T01:05:21;13.30;;;5.37;;
25091;SDS011;13082;52.374;4.946;2023-11-21T01:07:46;10.53;;;5.07;;
25091;SDS011;13082;52.374;4.946;2023-11-21T01:10:12;11.20;;;5.20;;
25091;SDS011;13082;52.374;4.946;2023-11-21T01:12:38;8.20;;;4.57;;
25091;SDS011;13082;52.374;4.946;2023-11-21T01:18:07;7.40;;;4.53;;
25091;SDS011;13082;52.374;4.946;2023-11-21T01:20:33;13.87;;;5.17;;
25091;SDS011;13082;52.374;4.946;2023-11-21T01:22:59;7.50;;;5.33;;
25091;SDS011;13082;52.374;4.946;2023-11-21T01:25:25;13.50;;;5.17;;
25091;SDS011;13082;52.374;4.946;2023-11-21T01:27:50;12.73;;;5.40;;
25091;SDS011;13082;52.374;4.946;2023-11-21T01:30:16;8.93;;;5.20;;
25091;SDS011;13082;52.374;4.946;2023-11-21T01:32:42;9.77;;;4.97;;
25091;SDS011;13082;52.374;4.946;2023-11-21T01:35:08;7.90;;;4.73;;
25091;SDS011;13082;52.374;4.946;2023-11-21T01:37:35;8.07;;;4.30;;
25091;SDS011;13082;52.374;4.946;2023-11-21T01:40:01;6.50;;;3.93;;
25091;SDS011;13082;52.374;4.946;2023-11-21T01:42:27;10.07;;;4.80;;
25091;SDS011;13082;52.374;4.946;2023-11-21T01:44:54;11.87;;;4.80;;
25091;SDS011;13082;52.374;4.946;2023-11-21T01:47:20;7.17;;;4.40;;
25091;SDS011;13082;52.374;4.946;2023-11-21T01:49:46;6.83;;;4.20;;
25091;SDS011;13082;52.374;4.946;2023-11-21T01:52:13;12.37;;;5.00;;
25091;SDS011;13082;52.374;4.946;2023-11-21T01:54:39;8.57;;;4.43;;
25091;SDS011;13082;52.374;4.946;2023-11-21T01:57:07;8.73;;;4.27;;
25091;SDS011;13082;52.374;4.946;2023-11-21T01:59:34;10.93;;;4.33;;
25091;SDS011;13082;52.374;4.946;2023-11-21T02:02:01;9.70;;;4.87;;
25091;SDS011;13082;52.374;4.946;2023-11-21T02:04:34;6.97;;;4.23;;
25091;SDS011;13082;52.374;4.946;2023-11-21T02:07:03;9.83;;;4.30;;
25091;SDS011;13082;52.374;4.946;2023-11-21T02:09:30;11.20;;;4.70;;
25091;SDS011;13082;52.374;4.946;2023-11-21T02:11:58;12.37;;;4.70;;
25091;SDS011;13082;52.374;4.946;2023-11-21T02:14:24;8.70;;;4.43;;
25091;SDS011;13082;52.374;4.946;2023-11-21T02:16:51;7.60;;;4.63;;
25091;SDS011;13082;52.374;4.946;2023-11-21T02:19:18;10.37;;;5.93;;
25091;SDS011;13082;52.374;4.946;2023-11-21T02:21:47;11.00;;;4.50;;
25091;SDS011;13082;52.374;4.946;2023-11-21T02:24:15;9.13;;;4.20;;
25091;SDS011;13082;52.374;4.946;2023-11-21T02:26:42;7.00;;;4.47;;
25091;SDS011;13082;52.374;4.946;2023-11-21T02:29:08;10.27;;;4.97;;
25091;SDS011;13082;52.374;4.946;2023-11-21T02:31:37;15.17;;;5.17;;
25091;SDS011;13082;52.374;4.946;2023-11-21T02:34:10;8.87;;;4.47;;
25091;SDS011;13082;52.374;4.946;2023-11-21T02:36:38;9.47;;;4.63;;
25091;SDS011;13082;52.374;4.946;2023-11-21T02:39:04;10.63;;;4.60;;
25091;SDS011;13082;52.374;4.946;2023-11-21T02:41:29;8.90;;;4.83;;
25091;SDS011;13082;52.374;4.946;2023-11-21T02:43:55;13.13;;;5.20;;
25091;SDS011;13082;52.374;4.946;2023-11-21T02:46:20;24.57;;;5.13;;
25091;SDS011;13082;52.374;4.946;2023-11-21T02:48:47;8.73;;;4.50;;
25091;SDS011;13082;52.374;4.946;2023-11-21T02:51:12;10.77;;;4.97;;
25091;SDS011;13082;52.374;4.946;2023-11-21T02:53:38;13.20;;;5.50;;
25091;SDS011;13082;52.374;4.946;2023-11-21T02:56:04;7.60;;;4.80;;
25091;SDS011;13082;52.374;4.946;2023-11-21T02:58:30;7.97;;;4.77;;
25091;SDS011;13082;52.374;4.946;2023-11-21T03:00:55;13.33;;;5.30;;
25091;SDS011;13082;52.374;4.946;2023-11-21T03:03:21;10.83;;;5.07;;
25091;SDS011;13082;52.374;4.946;2023-11-21T03:05:48;12.53;;;5.90;;
25091;SDS011;13082;52.374;4.946;2023-11-21T03:08:14;10.07;;;5.67;;
25091;SDS011;13082;52.374;4.946;2023-11-21T03:10:40;11.33;;;4.60;;
25091;SDS011;13082;52.374;4.946;2023-11-21T03:13:05;10.07;;;4.30;;
25091;SDS011;13082;52.374;4.946;2023-11-21T03:15:31;8.90;;;5.03;;
25091;SDS011;13082;52.374;4.946;2023-11-21T03:17:57;6.63;;;4.33;;
25091;SDS011;13082;52.374;4.946;2023-11-21T03:20:23;10.13;;;5.03;;
25091;SDS011;13082;52.374;4.946;2023-11-21T03:22:49;11.47;;;4.87;;
25091;SDS011;13082;52.374;4.946;2023-11-21T03:25:15;11.83;;;5.37;;
25091;SDS011;13082;52.374;4.946;2023-11-21T03:27:42;11.13;;;4.43;;
25091;SDS011;13082;52.374;4.946;2023-11-21T03:30:09;8.13;;;4.33;;
25091;SDS011;13082;52.374;4.946;2023-11-21T03:32:36;7.33;;;4.03;;
25091;SDS011;13082;52.374;4.946;2023-11-21T03:35:01;10.67;;;4.97;;
25091;SDS011;13082;52.374;4.946;2023-11-21T03:37:28;9.50;;;4.20;;
25091;SDS011;13082;52.374;4.946;2023-11-21T03:39:54;5.67;;;3.43;;
25091;SDS011;13082;52.374;4.946;2023-11-21T03:42:21;9.70;;;4.43;;
25091;SDS011;13082;52.374;4.946;2023-11-21T03:44:46;7.93;;;4.37;;
25091;SDS011;13082;52.374;4.946;2023-11-21T03:47:12;10.53;;;4.27;;
25091;SDS011;13082;52.374;4.946;2023-11-21T03:49:38;6.20;;;3.93;;
25091;SDS011;13082;52.374;4.946;2023-11-21T03:52:04;7.43;;;3.67;;
25091;SDS011;13082;52.374;4.946;2023-11-21T03:54:30;7.40;;;4.20;;
25091;SDS011;13082;52.374;4.946;2023-11-21T03:56:55;9.17;;;4.57;;
25091;SDS011;13082;52.374;4.946;2023-11-21T03:59:21;6.97;;;4.33;;
25091;SDS011;13082;52.374;4.946;2023-11-21T04:01:49;6.20;;;4.07;;
25091;SDS011;13082;52.374;4.946;2023-11-21T04:04:15;8.83;;;4.40;;
25091;SDS011;13082;52.374;4.946;2023-11-21T04:06:41;9.10;;;5.10;;
25091;SDS011;13082;52.374;4.946;2023-11-21T04:09:06;9.97;;;4.37;;
25091;SDS011;13082;52.374;4.946;2023-11-21T04:11:32;5.17;;;4.00;;
25091;SDS011;13082;52.374;4.946;2023-11-21T04:13:58;5.77;;;3.60;;
25091;SDS011;13082;52.374;4.946;2023-11-21T04:16:24;5.37;;;3.73;;
25091;SDS011;13082;52.374;4.946;2023-11-21T04:18:49;5.87;;;3.13;;
25091;SDS011;13082;52.374;4.946;2023-11-21T04:21:16;8.87;;;4.13;;
25091;SDS011;13082;52.374;4.946;2023-11-21T04:23:41;5.50;;;3.10;;
25091;SDS011;13082;52.374;4.946;2023-11-21T04:26:07;6.30;;;2.90;;
25091;SDS011;13082;52.374;4.946;2023-11-21T04:28:33;3.73;;;2.53;;
25091;SDS011;13082;52.374;4.946;2023-11-21T04:30:59;5.27;;;2.87;;
25091;SDS011;13082;52.374;4.946;2023-11-21T04:33:25;4.63;;;2.57;;
25091;SDS011;13082;52.374;4.946;2023-11-21T04:35:50;5.47;;;2.43;;
25091;SDS011;13082;52.374;4.946;2023-11-21T04:38:16;5.60;;;2.37;;
25091;SDS011;13082;52.374;4.946;2023-11-21T04:40:42;4.63;;;2.57;;
25091;SDS011;13082;52.374;4.946;2023-11-21T04:43:07;6.90;;;2.40;;
25091;SDS011;13082;52.374;4.946;2023-11-21T04:45:33;3.47;;;2.80;;
25091;SDS011;13082;52.374;4.946;2023-11-21T04:47:59;3.97;;;2.73;;
25091;SDS011;13082;52.374;4.946;2023-11-21T04:50:25;4.03;;;2.77;;
25091;SDS011;13082;52.374;4.946;2023-11-21T04:52:52;4.53;;;2.50;;
25091;SDS011;13082;52.374;4.946;2023-11-21T04:55:17;7.30;;;2.90;;
25091;SDS011;13082;52.374;4.946;2023-11-21T04:57:44;4.47;;;2.53;;
25091;SDS011;13082;52.374;4.946;2023-11-21T05:00:10;5.30;;;2.50;;
25091;SDS011;13082;52.374;4.946;2023-11-21T05:02:37;4.50;;;3.10;;
25091;SDS011;13082;52.374;4.946;2023-11-21T05:05:03;5.27;;;2.70;;
25091;SDS011;13082;52.374;4.946;2023-11-21T05:07:30;4.33;;;2.40;;
25091;SDS011;13082;52.374;4.946;2023-11-21T05:09:57;4.60;;;2.67;;
25091;SDS011;13082;52.374;4.946;2023-11-21T05:12:23;8.53;;;2.80;;
25091;SDS011;13082;52.374;4.946;2023-11-21T05:14:49;4.73;;;2.57;;
25091;SDS011;13082;52.374;4.946;2023-11-21T05:17:15;5.03;;;2.67;;
25091;SDS011;13082;52.374;4.946;2023-11-21T05:19:41;4.33;;;2.63;;
25091;SDS011;13082;52.374;4.946;2023-11-21T05:22:08;8.00;;;2.80;;
25091;SDS011;13082;52.374;4.946;2023-11-21T05:24:33;5.47;;;2.80;;
25091;SDS011;13082;52.374;4.946;2023-11-21T05:27:00;5.93;;;2.90;;
25091;SDS011;13082;52.374;4.946;2023-11-21T05:29:25;4.97;;;2.53;;
25091;SDS011;13082;52.374;4.946;2023-11-21T05:31:51;7.13;;;2.90;;
25091;SDS011;13082;52.374;4.946;2023-11-21T05:34:18;6.73;;;3.20;;
25091;SDS011;13082;52.374;4.946;2023-11-21T05:36:43;5.20;;;2.53;;
25091;SDS011;13082;52.374;4.946;2023-11-21T05:39:10;7.53;;;2.90;;
25091;SDS011;13082;52.374;4.946;2023-11-21T05:41:36;4.60;;;2.30;;
25091;SDS011;13082;52.374;4.946;2023-11-21T05:44:02;7.43;;;2.43;;
25091;SDS011;13082;52.374;4.946;2023-11-21T05:46:28;6.33;;;2.50;;
25091;SDS011;13082;52.374;4.946;2023-11-21T05:48:53;5.37;;;2.33;;
25091;SDS011;13082;52.374;4.946;2023-11-21T05:51:19;2.97;;;2.20;;
25091;SDS011;13082;52.374;4.946;2023-11-21T05:53:45;8.03;;;2.80;;
25091;SDS011;13082;52.374;4.946;2023-11-21T05:56:11;7.73;;;2.80;;
25091;SDS011;13082;52.374;4.946;2023-11-21T05:58:38;6.87;;;2.93;;
25091;SDS011;13082;52.374;4.946;2023-11-21T06:01:05;6.73;;;2.70;;
25091;SDS011;13082;52.374;4.946;2023-11-21T06:03:34;5.80;;;1.97;;
25091;SDS011;13082;52.374;4.946;2023-11-21T06:06:00;5.47;;;2.07;;
25091;SDS011;13082;52.374;4.946;2023-11-21T06:08:25;5.90;;;2.43;;
25091;SDS011;13082;52.374;4.946;2023-11-21T06:10:51;4.27;;;2.67;;
25091;SDS011;13082;52.374;4.946;2023-11-21T06:13:17;8.40;;;2.43;;
25091;SDS011;13082;52.374;4.946;2023-11-21T06:15:49;8.33;;;3.03;;
25091;SDS011;13082;52.374;4.946;2023-11-21T06:18:15;4.40;;;2.50;;
25091;SDS011;13082;52.374;4.946;2023-11-21T06:20:41;6.00;;;3.40;;
25091;SDS011;13082;52.374;4.946;2023-11-21T06:23:06;6.83;;;2.80;;
25091;SDS011;13082;52.374;4.946;2023-11-21T06:25:32;6.83;;;3.27;;
25091;SDS011;13082;52.374;4.946;2023-11-21T06:28:01;5.60;;;2.50;;
25091;SDS011;13082;52.374;4.946;2023-11-21T06:30:26;4.10;;;2.40;;
25091;SDS011;13082;52.374;4.946;2023-11-21T06:32:53;4.67;;;3.27;;
25091;SDS011;13082;52.374;4.946;2023-11-21T06:35:19;5.17;;;2.67;;
25091;SDS011;13082;52.374;4.946;2023-11-21T06:37:45;5.00;;;3.30;;
25091;SDS011;13082;52.374;4.946;2023-11-21T06:40:12;5.57;;;3.07;;
25091;SDS011;13082;52.374;4.946;2023-11-21T06:42:40;7.03;;;3.80;;
25091;SDS011;13082;52.374;4.946;2023-11-21T06:45:06;4.70;;;3.40;;
25091;SDS011;13082;52.374;4.946;2023-11-21T06:47:33;6.00;;;3.40;;
25091;SDS011;13082;52.374;4.946;2023-11-21T06:49:58;5.63;;;3.30;;
25091;SDS011;13082;52.374;4.946;2023-11-21T06:52:25;4.33;;;3.13;;
25091;SDS011;13082;52.374;4.946;2023-11-21T06:54:51;6.93;;;3.20;;
25091;SDS011;13082;52.374;4.946;2023-11-21T06:57:16;7.80;;;3.97;;
25091;SDS011;13082;52.374;4.946;2023-11-21T06:59:42;8.90;;;3.87;;
25091;SDS011;13082;52.374;4.946;2023-11-21T07:02:08;6.73;;;3.70;;
25091;SDS011;13082;52.374;4.946;2023-11-21T07:04:34;4.83;;;3.30;;
25091;SDS011;13082;52.374;4.946;2023-11-21T07:07:01;7.00;;;3.43;;
25091;SDS011;13082;52.374;4.946;2023-11-21T07:09:27;9.20;;;3.33;;
25091;SDS011;13082;52.374;4.946;2023-11-21T07:11:54;9.67;;;3.37;;
25091;SDS011;13082;52.374;4.946;2023-11-21T07:14:20;7.00;;;3.07;;
25091;SDS011;13082;52.374;4.946;2023-11-21T07:16:46;6.13;;;3.40;;
25091;SDS011;13082;52.374;4.946;2023-11-21T07:19:12;6.77;;;3.50;;
25091;SDS011;13082;52.374;4.946;2023-11-21T07:21:38;7.07;;;3.47;;
25091;SDS011;13082;52.374;4.946;2023-11-21T07:24:04;9.30;;;3.50;;
25091;SDS011;13082;52.374;4.946;2023-11-21T07:26:34;7.10;;;3.77;;
25091;SDS011;13082;52.374;4.946;2023-11-21T07:29:00;6.87;;;3.90;;
25091;SDS011;13082;52.374;4.946;2023-11-21T07:31:27;8.33;;;3.80;;
25091;SDS011;13082;52.374;4.946;2023-11-21T07:33:54;11.47;;;4.40;;
25091;SDS011;13082;52.374;4.946;2023-11-21T07:36:22;5.97;;;3.10;;
25091;SDS011;13082;52.374;4.946;2023-11-21T07:38:48;4.57;;;3.77;;
25091;SDS011;13082;52.374;4.946;2023-11-21T07:41:14;9.40;;;3.43;;
25091;SDS011;13082;52.374;4.946;2023-11-21T07:43:43;6.53;;;3.20;;
25091;SDS011;13082;52.374;4.946;2023-11-21T07:46:09;9.40;;;3.97;;
25091;SDS011;13082;52.374;4.946;2023-11-21T07:48:37;5.80;;;3.63;;
25091;SDS011;13082;52.374;4.946;2023-11-21T07:51:03;6.37;;;3.43;;
25091;SDS011;13082;52.374;4.946;2023-11-21T07:53:29;5.90;;;3.87;;
25091;SDS011;13082;52.374;4.946;2023-11-21T07:55:55;5.03;;;3.40;;
25091;SDS011;13082;52.374;4.946;2023-11-21T07:58:21;7.80;;;3.50;;
25091;SDS011;13082;52.374;4.946;2023-11-21T08:00:46;9.63;;;3.73;;
25091;SDS011;13082;52.374;4.946;2023-11-21T08:03:13;8.97;;;4.40;;
25091;SDS011;13082;52.374;4.946;2023-11-21T08:05:39;6.00;;;3.87;;
25091;SDS011;13082;52.374;4.946;2023-11-21T08:08:05;9.63;;;3.67;;
25091;SDS011;13082;52.374;4.946;2023-11-21T08:10:30;14.27;;;4.23;;
25091;SDS011;13082;52.374;4.946;2023-11-21T08:12:56;7.47;;;3.80;;
25091;SDS011;13082;52.374;4.946;2023-11-21T08:15:22;7.87;;;3.20;;
25091;SDS011;13082;52.374;4.946;2023-11-21T08:17:47;7.97;;;3.80;;
25091;SDS011;13082;52.374;4.946;2023-11-21T08:20:13;5.87;;;3.37;;
25091;SDS011;13082;52.374;4.946;2023-11-21T08:22:41;5.37;;;3.80;;
25091;SDS011;13082;52.374;4.946;2023-11-21T08:25:09;5.67;;;3.77;;
25091;SDS011;13082;52.374;4.946;2023-11-21T08:27:35;7.53;;;4.20;;
25091;SDS011;13082;52.374;4.946;2023-11-21T08:30:02;5.87;;;4.03;;
25091;SDS011;13082;52.374;4.946;2023-11-21T08:32:28;8.03;;;4.20;;
25091;SDS011;13082;52.374;4.946;2023-11-21T08:34:57;6.10;;;3.67;;
25091;SDS011;13082;52.374;4.946;2023-11-21T08:37:23;7.23;;;3.90;;
25091;SDS011;13082;52.374;4.946;2023-11-21T08:39:48;5.97;;;3.70;;
25091;SDS011;13082;52.374;4.946;2023-11-21T08:42:14;5.67;;;3.40;;
25091;SDS011;13082;52.374;4.946;2023-11-21T08:44:40;6.77;;;4.03;;
25091;SDS011;13082;52.374;4.946;2023-11-21T08:47:06;8.47;;;4.63;;
25091;SDS011;13082;52.374;4.946;2023-11-21T08:49:32;8.17;;;4.00;;
25091;SDS011;13082;52.374;4.946;2023-11-21T08:51:58;8.43;;;4.23;;
25091;SDS011;13082;52.374;4.946;2023-11-21T08:54:24;10.40;;;4.30;;
25091;SDS011;13082;52.374;4.946;2023-11-21T08:56:53;8.50;;;4.30;;
25091;SDS011;13082;52.374;4.946;2023-11-21T08:59:20;9.67;;;5.23;;
25091;SDS011;13082;52.374;4.946;2023-11-21T09:01:46;7.77;;;4.63;;
25091;SDS011;13082;52.374;4.946;2023-11-21T09:04:12;11.00;;;6.13;;
25091;SDS011;13082;52.374;4.946;2023-11-21T09:06:38;13.13;;;5.47;;
25091;SDS011;13082;52.374;4.946;2023-11-21T09:09:04;12.33;;;6.53;;
25091;SDS011;13082;52.374;4.946;2023-11-21T09:11:31;12.97;;;5.83;;
25091;SDS011;13082;52.374;4.946;2023-11-21T09:13:59;16.83;;;6.40;;
25091;SDS011;13082;52.374;4.946;2023-11-21T09:16:25;10.83;;;6.20;;
25091;SDS011;13082;52.374;4.946;2023-11-21T09:18:50;10.77;;;5.57;;
25091;SDS011;13082;52.374;4.946;2023-11-21T09:21:16;12.70;;;6.97;;
25091;SDS011;13082;52.374;4.946;2023-11-21T09:23:43;9.90;;;6.17;;
25091;SDS011;13082;52.374;4.946;2023-11-21T09:26:09;13.47;;;6.87;;
25091;SDS011;13082;52.374;4.946;2023-11-21T09:28:35;12.67;;;6.77;;
25091;SDS011;13082;52.374;4.946;2023-11-21T09:31:06;11.30;;;6.47;;
25091;SDS011;13082;52.374;4.946;2023-11-21T09:33:34;12.53;;;6.30;;
25091;SDS011;13082;52.374;4.946;2023-11-21T09:35:59;11.90;;;6.50;;
25091;SDS011;13082;52.374;4.946;2023-11-21T09:38:26;11.20;;;6.60;;
25091;SDS011;13082;52.374;4.946;2023-11-21T09:40:53;12.90;;;6.23;;
25091;SDS011;13082;52.374;4.946;2023-11-21T09:43:20;11.33;;;5.30;;
25091;SDS011;13082;52.374;4.946;2023-11-21T09:45:47;10.10;;;5.30;;
25091;SDS011;13082;52.374;4.946;2023-11-21T09:48:19;9.23;;;5.77;;
25091;SDS011;13082;52.374;4.946;2023-11-21T09:50:46;9.37;;;5.73;;
25091;SDS011;13082;52.374;4.946;2023-11-21T09:53:21;12.60;;;6.50;;
25091;SDS011;13082;52.374;4.946;2023-11-21T09:55:50;9.83;;;5.60;;
25091;SDS011;13082;52.374;4.946;2023-11-21T09:58:17;12.50;;;5.87;;
25091;SDS011;13082;52.374;4.946;2023-11-21T10:00:44;9.97;;;5.67;;
25091;SDS011;13082;52.374;4.946;2023-11-21T10:03:11;11.33;;;5.90;;
25091;SDS011;13082;52.374;4.946;2023-11-21T10:05:38;8.03;;;5.20;;
25091;SDS011;13082;52.374;4.946;2023-11-21T10:08:07;10.13;;;5.03;;
25091;SDS011;13082;52.374;4.946;2023-11-21T10:10:35;10.47;;;4.83;;
25091;SDS011;13082;52.374;4.946;2023-11-21T10:13:02;7.73;;;4.23;;
25091;SDS011;13082;52.374;4.946;2023-11-21T10:15:35;11.50;;;5.20;;
25091;SDS011;13082;52.374;4.946;2023-11-21T10:18:02;8.83;;;4.70;;
25091;SDS011;13082;52.374;4.946;2023-11-21T10:20:29;9.53;;;5.30;;
25091;SDS011;13082;52.374;4.946;2023-11-21T10:22:56;13.60;;;6.37;;
25091;SDS011;13082;52.374;4.946;2023-11-21T10:25:22;10.33;;;4.67;;
25091;SDS011;13082;52.374;4.946;2023-11-21T10:27:48;8.97;;;5.33;;
25091;SDS011;13082;52.374;4.946;2023-11-21T10:30:17;12.57;;;6.07;;
25091;SDS011;13082;52.374;4.946;2023-11-21T10:32:43;12.23;;;5.90;;
25091;SDS011;13082;52.374;4.946;2023-11-21T10:35:09;10.17;;;5.67;;
25091;SDS011;13082;52.374;4.946;2023-11-21T10:37:36;13.17;;;5.57;;
25091;SDS011;13082;52.374;4.946;2023-11-21T10:40:05;12.23;;;5.90;;
25091;SDS011;13082;52.374;4.946;2023-11-21T10:42:37;12.93;;;5.87;;
25091;SDS011;13082;52.374;4.946;2023-11-21T10:45:04;15.00;;;7.33;;
25091;SDS011;13082;52.374;4.946;2023-11-21T10:47:37;13.80;;;6.57;;
25091;SDS011;13082;52.374;4.946;2023-11-21T10:50:04;12.97;;;6.57;;
25091;SDS011;13082;52.374;4.946;2023-11-21T10:52:30;16.73;;;7.77;;
25091;SDS011;13082;52.374;4.946;2023-11-21T10:54:56;13.93;;;5.97;;
25091;SDS011;13082;52.374;4.946;2023-11-21T10:57:24;12.23;;;6.90;;
25091;SDS011;13082;52.374;4.946;2023-11-21T10:59:50;10.37;;;6.00;;
25091;SDS011;13082;52.374;4.946;2023-11-21T11:02:25;9.03;;;5.20;;
25091;SDS011;13082;52.374;4.946;2023-11-21T11:04:57;11.30;;;6.33;;
25091;SDS011;13082;52.374;4.946;2023-11-21T11:07:26;13.37;;;6.63;;
25091;SDS011;13082;52.374;4.946;2023-11-21T11:09:55;11.07;;;5.43;;
25091;SDS011;13082;52.374;4.946;2023-11-21T11:12:23;11.53;;;6.20;;
25091;SDS011;13082;52.374;4.946;2023-11-21T11:14:49;10.80;;;6.03;;
25091;SDS011;13082;52.374;4.946;2023-11-21T11:17:17;12.27;;;5.67;;
25091;SDS011;13082;52.374;4.946;2023-11-21T11:19:45;10.37;;;5.53;;
25091;SDS011;13082;52.374;4.946;2023-11-21T11:30:07;8.70;;;5.17;;
25091;SDS011;13082;52.374;4.946;2023-11-21T11:35:46;11.27;;;5.47;;
25091;SDS011;13082;52.374;4.946;2023-11-21T11:38:32;7.77;;;5.27;;
25091;SDS011;13082;52.374;4.946;2023-11-21T11:41:03;9.07;;;4.90;;
25091;SDS011;13082;52.374;4.946;2023-11-21T11:43:30;6.57;;;4.60;;
25091;SDS011;13082;52.374;4.946;2023-11-21T11:46:08;12.27;;;4.87;;
25091;SDS011;13082;52.374;4.946;2023-11-21T11:48:39;8.30;;;5.10;;
25091;SDS011;13082;52.374;4.946;2023-11-21T11:51:05;7.57;;;4.70;;
25091;SDS011;13082;52.374;4.946;2023-11-21T11:53:40;7.13;;;4.50;;
25091;SDS011;13082;52.374;4.946;2023-11-21T11:56:20;7.17;;;5.10;;
25091;SDS011;13082;52.374;4.946;2023-11-21T11:58:47;7.70;;;4.63;;
25091;SDS011;13082;52.374;4.946;2023-11-21T12:01:15;9.47;;;5.07;;
25091;SDS011;13082;52.374;4.946;2023-11-21T12:03:43;9.07;;;5.00;;
25091;SDS011;13082;52.374;4.946;2023-11-21T12:06:09;11.67;;;5.23;;
25091;SDS011;13082;52.374;4.946;2023-11-21T12:08:36;8.87;;;5.47;;
25091;SDS011;13082;52.374;4.946;2023-11-21T12:11:03;8.50;;;5.57;;
25091;SDS011;13082;52.374;4.946;2023-11-21T12:13:29;7.97;;;5.37;;
25091;SDS011;13082;52.374;4.946;2023-11-21T12:15:55;8.20;;;5.73;;
25091;SDS011;13082;52.374;4.946;2023-11-21T12:18:21;10.70;;;6.23;;
25091;SDS011;13082;52.374;4.946;2023-11-21T12:20:46;10.87;;;6.33;;
25091;SDS011;13082;52.374;4.946;2023-11-21T12:23:15;9.93;;;5.20;;
25091;SDS011;13082;52.374;4.946;2023-11-21T12:25:42;7.53;;;4.73;;
25091;SDS011;13082;52.374;4.946;2023-11-21T12:28:08;11.20;;;6.10;;
25091;SDS011;13082;52.374;4.946;2023-11-21T12:30:34;13.33;;;6.77;;
25091;SDS011;13082;52.374;4.946;2023-11-21T12:33:01;11.07;;;6.33;;
25091;SDS011;13082;52.374;4.946;2023-11-21T12:35:28;11.50;;;6.20;;
25091;SDS011;13082;52.374;4.946;2023-11-21T12:37:56;9.50;;;5.97;;
25091;SDS011;13082;52.374;4.946;2023-11-21T12:40:25;9.30;;;6.47;;
25091;SDS011;13082;52.374;4.946;2023-11-21T12:42:55;10.90;;;6.60;;
25091;SDS011;13082;52.374;4.946;2023-11-21T12:45:22;14.80;;;6.50;;
25091;SDS011;13082;52.374;4.946;2023-11-21T12:47:56;12.70;;;7.33;;
25091;SDS011;13082;52.374;4.946;2023-11-21T12:50:25;11.97;;;6.23;;
25091;SDS011;13082;52.374;4.946;2023-11-21T12:53:03;12.43;;;6.97;;
25091;SDS011;13082;52.374;4.946;2023-11-21T12:55:30;11.20;;;6.93;;
25091;SDS011;13082;52.374;4.946;2023-11-21T12:57:59;13.63;;;7.47;;
25091;SDS011;13082;52.374;4.946;2023-11-21T13:00:37;11.83;;;7.10;;
25091;SDS011;13082;52.374;4.946;2023-11-21T13:03:14;12.10;;;7.53;;
25091;SDS011;13082;52.374;4.946;2023-11-21T13:05:50;13.73;;;6.87;;
25091;SDS011;13082;52.374;4.946;2023-11-21T13:08:18;13.27;;;7.03;;
25091;SDS011;13082;52.374;4.946;2023-11-21T13:10:48;12.57;;;6.73;;
25091;SDS011;13082;52.374;4.946;2023-11-21T13:13:15;13.03;;;7.57;;
25091;SDS011;13082;52.374;4.946;2023-11-21T13:16:02;10.57;;;7.03;;
25091;SDS011;13082;52.374;4.946;2023-11-21T13:18:31;13.43;;;7.43;;
25091;SDS011;13082;52.374;4.946;2023-11-21T13:20:58;14.60;;;8.30;;
25091;SDS011;13082;52.374;4.946;2023-11-21T13:23:24;12.47;;;7.77;;
25091;SDS011;13082;52.374;4.946;2023-11-21T13:25:51;18.80;;;7.20;;
25091;SDS011;13082;52.374;4.946;2023-11-21T13:28:17;14.67;;;7.50;;
25091;SDS011;13082;52.374;4.946;2023-11-21T13:30:46;15.97;;;6.97;;
25091;SDS011;13082;52.374;4.946;2023-11-21T13:33:11;13.27;;;6.83;;
25091;SDS011;13082;52.374;4.946;2023-11-21T13:35:42;13.00;;;7.57;;
25091;SDS011;13082;52.374;4.946;2023-11-21T13:38:16;11.97;;;7.10;;
25091;SDS011;13082;52.374;4.946;2023-11-21T13:40:49;9.37;;;6.67;;
25091;SDS011;13082;52.374;4.946;2023-11-21T13:43:18;8.17;;;5.00;;
25091;SDS011;13082;52.374;4.946;2023-11-21T13:45:47;8.50;;;5.40;;
25091;SDS011;13082;52.374;4.946;2023-11-21T13:48:23;9.30;;;5.13;;
25091;SDS011;13082;52.374;4.946;2023-11-21T13:50:50;9.30;;;5.43;;
25091;SDS011;13082;52.374;4.946;2023-11-21T13:53:33;9.30;;;5.50;;
25091;SDS011;13082;52.374;4.946;2023-11-21T13:56:02;9.43;;;5.30;;
25091;SDS011;13082;52.374;4.946;2023-11-21T13:58:28;6.90;;;5.40;;
25091;SDS011;13082;52.374;4.946;2023-11-21T14:01:09;8.23;;;5.30;;
25091;SDS011;13082;52.374;4.946;2023-11-21T14:03:56;7.73;;;5.30;;
25091;SDS011;13082;52.374;4.946;2023-11-21T14:06:40;6.70;;;4.93;;
25091;SDS011;13082;52.374;4.946;2023-11-21T14:09:13;11.47;;;5.93;;
25091;SDS011;13082;52.374;4.946;2023-11-21T14:11:56;8.50;;;5.03;;
25091;SDS011;13082;52.374;4.946;2023-11-21T14:14:26;9.03;;;5.43;;
25091;SDS011;13082;52.374;4.946;2023-11-21T14:16:53;5.93;;;4.93;;
25091;SDS011;13082;52.374;4.946;2023-11-21T14:19:20;7.20;;;5.20;;
25091;SDS011;13082;52.374;4.946;2023-11-21T14:21:47;7.87;;;5.63;;
25091;SDS011;13082;52.374;4.946;2023-11-21T14:24:15;10.20;;;5.70;;
25091;SDS011;13082;52.374;4.946;2023-11-21T14:26:44;9.40;;;6.33;;
25091;SDS011;13082;52.374;4.946;2023-11-21T14:29:11;8.03;;;6.33;;
25091;SDS011;13082;52.374;4.946;2023-11-21T14:31:39;10.80;;;6.90;;
25091;SDS011;13082;52.374;4.946;2023-11-21T14:34:08;10.43;;;7.33;;
25091;SDS011;13082;52.374;4.946;2023-11-21T14:36:35;10.07;;;7.17;;
25091;SDS011;13082;52.374;4.946;2023-11-21T14:39:05;10.60;;;7.93;;
25091;SDS011;13082;52.374;4.946;2023-11-21T14:41:41;12.50;;;7.57;;
25091;SDS011;13082;52.374;4.946;2023-11-21T14:44:07;9.80;;;6.50;;
25091;SDS011;13082;52.374;4.946;2023-11-21T14:46:37;10.77;;;6.90;;
25091;SDS011;13082;52.374;4.946;2023-11-21T14:49:04;10.13;;;6.80;;
25091;SDS011;13082;52.374;4.946;2023-11-21T14:51:44;11.93;;;6.43;;
25091;SDS011;13082;52.374;4.946;2023-11-21T14:54:31;10.73;;;7.03;;
25091;SDS011;13082;52.374;4.946;2023-11-21T14:57:10;10.83;;;6.83;;
25091;SDS011;13082;52.374;4.946;2023-11-21T14:59:43;8.27;;;6.37;;